createdAt,value
2019-03-20T00:00:08.682Z,2.47
2019-03-20T00:02:36.877Z,2.37
2019-03-20T00:05:06.113Z,2.29
2019-03-20T00:07:34.319Z,2.22
2019-03-20T00:10:02.540Z,2.16
2019-03-20T00:12:30.729Z,2.24
2019-03-20T00:14:58.761Z,2.39
2019-03-20T00:17:27.726Z,2.50
2019-03-20T00:19:55.945Z,2.58
2019-03-20T00:22:24.148Z,2.61
2019-03-20T00:24:52.356Z,2.58
2019-03-20T00:27:20.559Z,2.63
2019-03-20T00:29:48.778Z,2.64
2019-03-20T00:32:16.977Z,2.59
2019-03-20T00:34:45.179Z,2.51
2019-03-20T00:37:13.392Z,2.45
2019-03-20T00:39:41.595Z,2.47
2019-03-20T00:42:09.810Z,2.48
2019-03-20T00:44:38.008Z,2.43
2019-03-20T00:47:06.217Z,2.43
2019-03-20T00:49:34.421Z,2.52
2019-03-20T00:52:02.624Z,2.56
2019-03-20T00:54:30.832Z,2.59
2019-03-20T00:56:59.038Z,2.57
2019-03-20T00:59:27.256Z,2.53
2019-03-20T01:01:55.456Z,2.57
2019-03-20T01:04:23.668Z,2.64
2019-03-20T01:06:51.862Z,2.58
2019-03-20T01:09:20.072Z,2.63
2019-03-20T01:11:48.272Z,2.62
2019-03-20T01:14:16.492Z,2.64
2019-03-20T01:16:44.696Z,2.65
2019-03-20T01:19:12.979Z,2.58
2019-03-20T01:21:41.197Z,2.55
2019-03-20T01:24:09.398Z,2.53
2019-03-20T01:26:37.619Z,2.56
2019-03-20T01:29:05.807Z,2.57
2019-03-20T01:31:34.024Z,2.57
2019-03-20T01:34:02.225Z,2.55
2019-03-20T01:36:30.443Z,2.54
2019-03-20T01:38:58.638Z,2.54
2019-03-20T01:41:37.408Z,2.53
2019-03-20T01:43:56.775Z,2.53
2019-03-20T01:46:24.969Z,2.58
2019-03-20T01:48:53.184Z,2.59
2019-03-20T01:51:22.025Z,2.57
2019-03-20T01:53:50.235Z,2.55
2019-03-20T01:56:18.434Z,2.56
2019-03-20T01:58:46.888Z,2.58
2019-03-20T02:01:15.087Z,2.59
2019-03-20T02:03:43.296Z,2.63
2019-03-20T02:06:11.495Z,2.63
2019-03-20T02:08:39.713Z,2.67
2019-03-20T02:11:07.914Z,2.75
2019-03-20T02:13:36.110Z,2.77
2019-03-20T02:16:04.317Z,2.78
2019-03-20T02:18:32.511Z,2.82
2019-03-20T02:21:00.736Z,2.86
2019-03-20T02:23:28.933Z,2.86
2019-03-20T02:25:57.141Z,2.86
2019-03-20T02:28:25.339Z,2.90
2019-03-20T02:30:53.549Z,2.95
2019-03-20T02:33:21.794Z,2.98
2019-03-20T02:35:51.757Z,3.00
2019-03-20T02:38:19.872Z,3.06
2019-03-20T02:40:48.095Z,3.08
2019-03-20T02:43:16.292Z,3.11
2019-03-20T02:45:44.503Z,3.14
2019-03-20T02:48:12.705Z,3.18
2019-03-20T02:50:40.907Z,3.18
2019-03-20T02:53:09.116Z,3.19
2019-03-20T02:55:37.314Z,3.21
2019-03-20T02:58:05.524Z,3.25
2019-03-20T03:00:33.949Z,3.29
2019-03-20T03:03:02.185Z,3.31
2019-03-20T03:05:30.355Z,3.31
2019-03-20T03:07:59.297Z,3.32
2019-03-20T03:10:27.497Z,3.31
2019-03-20T03:12:55.725Z,3.33
2019-03-20T03:15:23.918Z,3.35
2019-03-20T03:17:52.133Z,3.34
2019-03-20T03:20:20.334Z,3.32
2019-03-20T03:22:48.534Z,3.33
2019-03-20T03:25:16.759Z,3.34
2019-03-20T03:27:44.950Z,3.39
2019-03-20T03:30:14.791Z,3.42
2019-03-20T03:32:43.189Z,3.40
2019-03-20T03:35:16.797Z,3.40
2019-03-20T03:37:41.306Z,3.38
2019-03-20T03:40:12.515Z,3.39
2019-03-20T03:42:40.712Z,3.39
2019-03-20T03:45:11.258Z,3.36
2019-03-20T03:47:39.457Z,3.41
2019-03-20T03:50:08.708Z,3.47
2019-03-20T03:52:36.993Z,3.51
2019-03-20T03:55:06.733Z,3.50
2019-03-20T03:57:35.165Z,3.50
2019-03-20T04:00:03.529Z,3.44
2019-03-20T04:02:31.748Z,3.41
2019-03-20T04:04:59.957Z,3.46
2019-03-20T04:07:28.156Z,3.47
2019-03-20T04:09:56.357Z,3.48
2019-03-20T04:12:24.589Z,3.52
2019-03-20T04:14:52.782Z,3.56
2019-03-20T04:17:26.808Z,3.56
2019-03-20T04:19:55.009Z,3.52
2019-03-20T04:22:23.233Z,3.46
2019-03-20T04:24:51.429Z,3.45
2019-03-20T04:27:19.646Z,3.42
2019-03-20T04:29:47.839Z,3.36
2019-03-20T04:32:17.321Z,3.32
2019-03-20T04:34:45.430Z,3.26
2019-03-20T04:37:13.876Z,3.22
2019-03-20T04:39:42.075Z,3.20
2019-03-20T04:42:10.300Z,3.23
2019-03-20T04:44:38.495Z,3.22
2019-03-20T04:47:06.699Z,3.29
2019-03-20T04:49:34.918Z,3.31
2019-03-20T04:52:03.112Z,3.30
2019-03-20T04:54:31.325Z,3.24
2019-03-20T04:56:59.520Z,3.19
2019-03-20T04:59:27.740Z,3.18
2019-03-20T05:01:55.943Z,3.16
2019-03-20T05:04:24.144Z,3.16
2019-03-20T05:06:58.870Z,3.17
2019-03-20T05:09:22.283Z,3.13
2019-03-20T05:11:51.233Z,3.12
2019-03-20T05:14:19.438Z,3.11
2019-03-20T05:16:47.650Z,3.09
2019-03-20T05:19:15.853Z,3.14
2019-03-20T05:21:44.069Z,3.21
2019-03-20T05:24:12.280Z,3.31
2019-03-20T05:26:40.479Z,3.33
2019-03-20T05:29:08.693Z,3.39
2019-03-20T05:31:36.905Z,3.44
2019-03-20T05:34:05.123Z,3.47
2019-03-20T05:36:33.320Z,3.51
2019-03-20T05:39:01.542Z,3.49
2019-03-20T05:41:29.737Z,3.55
2019-03-20T05:43:57.942Z,3.59
2019-03-20T05:46:26.164Z,3.68
2019-03-20T05:48:54.370Z,3.74
2019-03-20T05:51:22.586Z,3.80
2019-03-20T05:53:50.798Z,3.86
2019-03-20T05:56:19.012Z,3.90
2019-03-20T05:58:47.213Z,3.96
2019-03-20T06:01:15.436Z,3.99
2019-03-20T06:03:43.641Z,4.01
2019-03-20T06:06:11.843Z,4.05
2019-03-20T06:08:40.305Z,4.10
2019-03-20T06:11:08.521Z,4.11
2019-03-20T06:13:36.727Z,4.13
2019-03-20T06:16:04.933Z,4.16
2019-03-20T06:18:33.156Z,4.20
2019-03-20T06:21:01.349Z,4.23
2019-03-20T06:23:29.553Z,4.29
2019-03-20T06:25:57.787Z,4.35
2019-03-20T06:28:25.977Z,4.43
2019-03-20T06:30:54.184Z,4.50
2019-03-20T06:33:22.381Z,4.58
2019-03-20T06:35:50.600Z,4.65
2019-03-20T06:38:18.810Z,4.69
2019-03-20T06:40:47.026Z,4.75
2019-03-20T06:43:15.486Z,4.82
2019-03-20T06:45:43.705Z,4.86
2019-03-20T06:48:11.916Z,4.91
2019-03-20T06:50:40.136Z,4.92
2019-03-20T06:53:08.339Z,4.96
2019-03-20T06:55:36.553Z,4.99
2019-03-20T06:58:04.775Z,5.05
2019-03-20T07:00:42.131Z,5.09
2019-03-20T07:03:28.325Z,5.11
2019-03-20T07:06:11.532Z,5.15
2019-03-20T07:08:45.886Z,5.21
2019-03-20T07:11:14.028Z,5.27
2019-03-20T07:13:42.231Z,5.31
2019-03-20T07:16:10.452Z,5.34
2019-03-20T07:18:38.652Z,5.38
2019-03-20T07:21:06.871Z,5.42
2019-03-20T07:23:35.072Z,5.48
2019-03-20T07:26:03.283Z,5.56
2019-03-20T07:28:31.497Z,5.64
2019-03-20T07:30:59.699Z,5.71
2019-03-20T07:33:27.913Z,5.77
2019-03-20T07:35:56.696Z,5.83
2019-03-20T07:38:24.907Z,5.91
2019-03-20T07:40:53.112Z,5.99
2019-03-20T07:43:21.340Z,6.08
2019-03-20T07:45:49.532Z,6.13
2019-03-20T07:48:22.494Z,6.20
2019-03-20T07:50:47.676Z,6.25
2019-03-20T07:53:18.372Z,6.25
2019-03-20T07:55:46.577Z,6.26
2019-03-20T07:58:15.240Z,6.29
2019-03-20T08:00:43.455Z,6.26
2019-03-20T08:03:11.658Z,6.28
2019-03-20T08:05:40.608Z,6.34
2019-03-20T08:08:08.810Z,6.39
2019-03-20T08:10:37.045Z,6.44
2019-03-20T08:13:05.249Z,6.53
2019-03-20T08:15:35.166Z,6.63
2019-03-20T08:18:03.483Z,6.72
2019-03-20T08:20:31.816Z,6.79
2019-03-20T08:23:00.028Z,6.81
2019-03-20T08:25:28.229Z,6.88
2019-03-20T08:27:56.449Z,6.91
2019-03-20T08:30:24.653Z,6.91
2019-03-20T08:32:53.606Z,6.93
2019-03-20T08:35:21.816Z,6.95
2019-03-20T08:37:50.019Z,6.98
2019-03-20T08:40:18.861Z,7.05
2019-03-20T08:42:47.068Z,7.11
2019-03-20T08:45:16.739Z,7.15
2019-03-20T08:47:44.941Z,7.21
2019-03-20T08:50:22.075Z,7.25
2019-03-20T08:52:50.276Z,7.27
2019-03-20T08:55:19.225Z,7.34
2019-03-20T08:57:47.440Z,7.40
2019-03-20T09:00:19.657Z,7.40
2019-03-20T09:02:47.949Z,7.41
2019-03-20T09:05:16.152Z,7.46
2019-03-20T09:07:47.534Z,7.60
2019-03-20T09:10:24.040Z,7.77
2019-03-20T09:12:52.220Z,7.89
2019-03-20T09:15:20.870Z,7.99
2019-03-20T09:17:49.073Z,8.03
2019-03-20T09:20:17.919Z,8.11
2019-03-20T09:22:46.123Z,8.12
2019-03-20T09:25:17.591Z,8.13
2019-03-20T09:27:45.793Z,8.10
2019-03-20T09:30:16.611Z,8.12
2019-03-20T09:32:44.816Z,8.11
2019-03-20T09:35:13.494Z,8.13
2019-03-20T09:37:51.361Z,8.19
2019-03-20T09:40:16.279Z,8.22
2019-03-20T09:42:44.482Z,8.17
2019-03-20T09:45:17.584Z,8.20
2019-03-20T09:47:45.792Z,8.18
2019-03-20T09:50:15.552Z,8.14
2019-03-20T09:52:43.755Z,8.14
2019-03-20T09:55:15.905Z,8.10
2019-03-20T09:57:44.118Z,8.12
2019-03-20T10:00:26.371Z,8.20
2019-03-20T10:02:54.637Z,8.17
2019-03-20T10:05:22.839Z,8.21
2019-03-20T10:07:51.055Z,8.29
2019-03-20T10:10:29.216Z,8.29
2019-03-20T10:12:57.444Z,8.30
2019-03-20T10:15:31.893Z,8.39
2019-03-20T10:18:00.112Z,8.41
2019-03-20T10:20:28.381Z,8.36
2019-03-20T10:22:56.599Z,8.35
2019-03-20T10:25:25.466Z,8.34
2019-03-20T10:27:53.686Z,8.24
2019-03-20T10:30:23.684Z,8.24
2019-03-20T10:32:51.937Z,8.25
2019-03-20T10:35:20.110Z,8.21
2019-03-20T10:37:48.313Z,8.20
2019-03-20T10:40:26.373Z,8.16
2019-03-20T10:42:54.831Z,8.12
2019-03-20T10:45:24.757Z,8.07
2019-03-20T10:47:53.555Z,8.05
2019-03-20T10:50:25.173Z,8.09
2019-03-20T10:52:53.550Z,8.09
2019-03-20T10:55:21.768Z,8.13
2019-03-20T10:57:49.967Z,8.13
2019-03-20T11:00:20.734Z,8.10
2019-03-20T11:02:48.959Z,8.07
2019-03-20T11:05:17.496Z,8.08
2019-03-20T11:07:45.719Z,8.05
2019-03-20T11:10:17.179Z,8.00
2019-03-20T11:12:45.660Z,8.00
2019-03-20T11:15:17.930Z,7.99
2019-03-20T11:17:46.213Z,8.05
2019-03-20T11:20:16.072Z,8.05
2019-03-20T11:22:44.286Z,8.12
2019-03-20T11:25:17.298Z,8.09
2019-03-20T11:27:45.513Z,8.08
2019-03-20T11:30:19.610Z,8.05
2019-03-20T11:32:47.827Z,8.04
2019-03-20T11:35:16.037Z,8.08
2019-03-20T11:37:44.257Z,8.08
2019-03-20T11:40:15.502Z,8.10
2019-03-20T11:42:43.718Z,8.10
2019-03-20T11:45:11.915Z,8.15
2019-03-20T11:47:40.131Z,8.15
2019-03-20T11:50:14.310Z,8.18
2019-03-20T11:52:42.522Z,8.22
2019-03-20T11:55:10.732Z,8.24
2019-03-20T11:57:38.956Z,8.25
2019-03-20T12:00:15.509Z,8.25
2019-03-20T12:02:43.727Z,8.22
2019-03-20T12:05:12.389Z,8.24
2019-03-20T12:07:40.599Z,8.26
2019-03-20T12:10:12.070Z,8.25
2019-03-20T12:12:40.279Z,8.25
2019-03-20T12:15:10.232Z,8.29
2019-03-20T12:17:38.523Z,8.30
2019-03-20T12:20:13.287Z,8.50
2019-03-20T12:22:41.560Z,8.50
2019-03-20T12:25:18.310Z,8.70
2019-03-20T12:27:46.510Z,8.75
2019-03-20T12:30:17.155Z,8.70
2019-03-20T12:32:45.377Z,8.70
2019-03-20T12:35:15.420Z,8.69
2019-03-20T12:37:43.639Z,8.70
2019-03-20T12:40:20.197Z,8.66
2019-03-20T12:42:48.415Z,8.75
2019-03-20T12:45:19.424Z,8.78
2019-03-20T12:47:47.631Z,8.73
2019-03-20T12:50:15.854Z,8.71
2019-03-20T12:52:44.072Z,8.83
2019-03-20T12:55:14.779Z,8.83
2019-03-20T12:57:42.977Z,8.86
2019-03-20T13:00:22.589Z,8.83
2019-03-20T13:02:50.873Z,8.77
2019-03-20T13:05:19.083Z,8.79
2019-03-20T13:07:47.303Z,8.81
2019-03-20T13:10:23.339Z,8.70
2019-03-20T13:12:51.549Z,8.70
2019-03-20T13:15:23.994Z,8.70
2019-03-20T13:17:52.854Z,8.73
2019-03-20T13:20:21.120Z,8.72
2019-03-20T13:23:07.241Z,8.72
2019-03-20T13:25:35.442Z,8.66
2019-03-20T13:28:03.665Z,8.66
2019-03-20T13:30:40.734Z,8.70
2019-03-20T13:33:08.954Z,8.75
2019-03-20T13:35:37.149Z,8.78
2019-03-20T13:38:05.632Z,8.80
2019-03-20T13:40:33.841Z,8.78
2019-03-20T13:43:02.067Z,8.76
2019-03-20T13:45:30.271Z,8.74
2019-03-20T13:47:58.494Z,8.71
2019-03-20T13:50:26.703Z,8.71
2019-03-20T13:52:54.921Z,8.68
2019-03-20T13:55:23.129Z,8.68
2019-03-20T13:57:51.352Z,8.65
2019-03-20T14:00:23.572Z,8.66
2019-03-20T14:02:51.783Z,8.67
2019-03-20T14:05:20.004Z,8.69
2019-03-20T14:07:48.209Z,8.70
2019-03-20T14:10:27.105Z,8.76
2019-03-20T14:12:55.321Z,8.76
2019-03-20T14:15:23.550Z,8.87
2019-03-20T14:17:51.753Z,8.91
2019-03-20T14:20:24.881Z,8.90
2019-03-20T14:22:53.082Z,8.84
2019-03-20T14:25:21.640Z,8.90
2019-03-20T14:27:50.452Z,8.91
2019-03-20T14:30:21.925Z,8.86
2019-03-20T14:32:50.137Z,8.94
2019-03-20T14:35:18.351Z,8.99
2019-03-20T14:37:46.562Z,9.01
2019-03-20T14:40:36.067Z,9.01
2019-03-20T14:43:00.952Z,9.12
2019-03-20T14:45:29.180Z,9.18
2019-03-20T14:47:57.378Z,9.18
2019-03-20T14:50:26.235Z,9.16
2019-03-20T14:52:54.693Z,9.16
2019-03-20T14:55:22.900Z,9.23
2019-03-20T14:57:51.101Z,9.21
2019-03-20T15:00:21.518Z,9.19
2019-03-20T15:02:49.720Z,9.16
2019-03-20T15:05:17.925Z,9.16
2019-03-20T15:07:46.141Z,9.13
2019-03-20T15:10:16.178Z,9.07
2019-03-20T15:12:44.400Z,8.98
2019-03-20T15:15:40.802Z,8.98
2019-03-20T15:18:09.028Z,8.99
2019-03-20T15:20:37.228Z,8.99
2019-03-20T15:23:05.435Z,8.91
2019-03-20T15:25:33.655Z,8.95
2019-03-20T15:28:01.873Z,8.92
2019-03-20T15:30:30.671Z,8.96
2019-03-20T15:32:58.884Z,8.89
2019-03-20T15:35:27.088Z,8.89
2019-03-20T15:37:55.316Z,8.92
2019-03-20T15:40:25.069Z,8.95
2019-03-20T15:42:53.287Z,8.95
2019-03-20T15:45:21.494Z,8.91
2019-03-20T15:47:49.721Z,8.97
2019-03-20T15:50:25.625Z,8.98
2019-03-20T15:52:53.851Z,8.98
2019-03-20T15:55:31.341Z,8.97
2019-03-20T15:57:59.556Z,8.97
2019-03-20T16:00:27.764Z,8.95
2019-03-20T16:03:01.607Z,8.92
2019-03-20T16:05:29.829Z,8.86
2019-03-20T16:07:58.042Z,8.89
2019-03-20T16:10:26.262Z,8.89
2019-03-20T16:12:54.482Z,8.88
2019-03-20T16:15:23.513Z,8.88
2019-03-20T16:17:51.736Z,8.91
2019-03-20T16:20:19.942Z,8.88
2019-03-20T16:22:48.172Z,8.88
2019-03-20T16:25:18.470Z,8.90
2019-03-20T16:27:46.684Z,8.86
2019-03-20T16:30:26.074Z,8.80
2019-03-20T16:32:56.368Z,8.80
2019-03-20T16:35:24.220Z,8.75
2019-03-20T16:37:53.167Z,8.73
2019-03-20T16:40:24.621Z,8.73
2019-03-20T16:42:52.851Z,8.72
2019-03-20T16:45:28.633Z,8.72
2019-03-20T16:47:56.866Z,8.68
2019-03-20T16:50:25.077Z,8.68
2019-03-20T16:52:53.327Z,8.65
2019-03-20T16:55:21.576Z,8.67
2019-03-20T16:57:49.791Z,8.66
2019-03-20T17:00:32.029Z,8.64
2019-03-20T17:03:00.231Z,8.64
2019-03-20T17:05:29.561Z,8.62
2019-03-20T17:07:57.781Z,8.62
2019-03-20T17:10:34.953Z,8.60
2019-03-20T17:13:03.286Z,8.60
2019-03-20T17:15:34.065Z,8.59
2019-03-20T17:18:02.265Z,8.59
2019-03-20T17:20:30.933Z,8.59
2019-03-20T17:22:59.081Z,8.56
2019-03-20T17:25:27.290Z,8.55
2019-03-20T17:27:55.718Z,8.53
2019-03-20T17:30:26.115Z,8.53
2019-03-20T17:32:54.347Z,8.51
2019-03-20T17:35:22.676Z,8.51
2019-03-20T17:37:51.161Z,8.50
2019-03-20T17:40:23.254Z,8.47
2019-03-20T17:42:51.464Z,8.48
2019-03-20T17:45:20.927Z,8.47
2019-03-20T17:47:49.198Z,8.45
2019-03-20T17:50:28.578Z,8.44
2019-03-20T17:52:56.896Z,8.44
2019-03-20T17:55:25.235Z,8.43
2019-03-20T17:57:53.472Z,8.42
2019-03-20T18:00:37.523Z,8.41
2019-03-20T18:03:06.597Z,8.41
2019-03-20T18:05:35.405Z,8.39
2019-03-20T18:08:04.605Z,8.39
2019-03-20T18:10:34.721Z,8.38
2019-03-20T18:13:02.923Z,8.36
2019-03-20T18:15:31.161Z,8.36
2019-03-20T18:17:59.619Z,8.35
2019-03-20T18:20:27.854Z,8.30
2019-03-20T18:22:56.075Z,8.35
2019-03-20T18:25:24.565Z,8.33
2019-03-20T18:27:53.047Z,8.32
2019-03-20T18:30:32.009Z,8.30
2019-03-20T18:33:00.228Z,8.30
2019-03-20T18:35:28.429Z,8.29
2019-03-20T18:37:56.626Z,8.28
2019-03-20T18:40:26.839Z,8.28
2019-03-20T18:42:55.114Z,8.27
2019-03-20T18:45:24.075Z,8.27
2019-03-20T18:47:52.275Z,8.27
2019-03-20T18:50:21.963Z,8.24
2019-03-20T18:52:50.177Z,8.20
2019-03-20T18:55:19.124Z,8.25
2019-03-20T18:57:47.408Z,8.15
2019-03-20T19:00:32.807Z,8.15
2019-03-20T19:03:13.827Z,8.19
2019-03-20T19:05:56.968Z,8.19
2019-03-20T19:08:25.189Z,8.18
2019-03-20T19:10:53.456Z,8.15
2019-03-20T19:13:21.711Z,8.16
2019-03-20T19:15:49.979Z,8.13
2019-03-20T19:18:18.187Z,8.12
2019-03-20T19:20:46.439Z,8.11
2019-03-20T19:23:14.619Z,8.01
2019-03-20T19:25:42.831Z,8.01
2019-03-20T19:28:11.075Z,8.05
2019-03-20T19:30:39.293Z,8.04
2019-03-20T19:33:07.491Z,8.03
2019-03-20T19:35:35.713Z,8.04
2019-03-20T19:38:03.922Z,8.05
2019-03-20T19:40:32.126Z,8.03
2019-03-20T19:43:00.347Z,8.04
2019-03-20T19:45:28.550Z,8.03
2019-03-20T19:47:56.763Z,8.00
2019-03-20T19:50:24.971Z,7.97
2019-03-20T19:52:53.193Z,7.97
2019-03-20T19:55:21.399Z,8.02
2019-03-20T19:57:50.165Z,8.01
2019-03-20T20:00:25.097Z,8.01
2019-03-20T20:02:53.299Z,8.00
2019-03-20T20:05:22.373Z,7.98
2019-03-20T20:07:50.584Z,8.01
2019-03-20T20:10:19.430Z,7.99
2019-03-20T20:12:47.702Z,7.96
2019-03-20T20:15:26.877Z,7.99
2019-03-20T20:17:55.109Z,7.98
2019-03-20T20:20:36.942Z,7.99
2019-03-20T20:23:05.175Z,7.99
2019-03-20T20:25:33.373Z,7.96
2019-03-20T20:28:01.578Z,7.98
2019-03-20T20:30:29.791Z,7.98
2019-03-20T20:32:58.006Z,7.97
2019-03-20T20:35:26.205Z,7.98
2019-03-20T20:37:54.433Z,7.98
2019-03-20T20:40:23.682Z,7.97
2019-03-20T20:42:51.885Z,7.96
2019-03-20T20:45:20.163Z,7.90
2019-03-20T20:47:48.320Z,7.89
2019-03-20T20:50:17.170Z,7.89
2019-03-20T20:52:45.734Z,7.94
2019-03-20T20:55:21.388Z,7.91
2019-03-20T20:57:49.601Z,7.91
2019-03-20T21:00:20.209Z,7.88
2019-03-20T21:02:48.425Z,7.87
2019-03-20T21:05:16.638Z,7.88
2019-03-20T21:07:44.848Z,7.87
2019-03-20T21:10:15.570Z,7.87
2019-03-20T21:12:55.197Z,7.80
2019-03-20T21:15:19.312Z,7.80
2019-03-20T21:17:53.266Z,7.83
2019-03-20T21:20:21.474Z,7.83
2019-03-20T21:23:25.813Z,7.84
2019-03-20T21:25:54.034Z,7.81
2019-03-20T21:28:58.748Z,7.85
2019-03-20T21:31:30.477Z,7.85
2019-03-20T21:34:08.003Z,7.83
2019-03-20T21:36:54.074Z,7.89
2019-03-20T21:39:22.274Z,7.89
2019-03-20T21:42:08.662Z,7.88
2019-03-20T21:45:00.329Z,7.89
2019-03-20T21:47:34.291Z,7.88
2019-03-20T21:50:11.348Z,7.90
2019-03-20T21:52:39.586Z,7.90
2019-03-20T21:55:20.058Z,7.90
2019-03-20T21:57:54.245Z,7.89
2019-03-20T22:00:57.095Z,7.90
2019-03-20T22:03:25.324Z,7.84
2019-03-20T22:06:08.698Z,7.89
2019-03-20T22:08:36.917Z,7.92
2019-03-20T22:11:24.515Z,7.92
2019-03-20T22:13:58.761Z,7.93
2019-03-20T22:16:32.848Z,7.93
2019-03-20T22:19:20.826Z,7.93
2019-03-20T22:22:08.512Z,7.94
2019-03-20T22:25:11.257Z,7.96
2019-03-20T22:27:42.718Z,7.89
2019-03-20T22:30:10.940Z,7.93
2019-03-20T22:32:42.411Z,7.91
2019-03-20T22:35:25.726Z,7.87
2019-03-20T22:37:54.976Z,7.89
2019-03-20T22:40:48.929Z,7.89
2019-03-20T22:43:30.153Z,7.90
2019-03-20T22:46:03.942Z,7.92
2019-03-20T22:48:51.970Z,7.93
2019-03-20T22:51:38.064Z,7.97
2019-03-20T22:54:25.822Z,8.01
2019-03-20T22:57:09.008Z,8.03
2019-03-20T22:59:37.465Z,8.05
2019-03-20T23:02:16.795Z,8.04
2019-03-20T23:04:48.259Z,8.04
2019-03-20T23:07:16.711Z,8.15
2019-03-20T23:09:44.919Z,8.15
2019-03-20T23:12:13.983Z,8.17
2019-03-20T23:14:42.264Z,8.20
2019-03-20T23:17:10.724Z,8.23
2019-03-20T23:19:40.167Z,8.26
2019-03-20T23:22:08.724Z,8.28
2019-03-20T23:24:37.011Z,8.29
2019-03-20T23:27:08.634Z,8.31
2019-03-20T23:29:36.847Z,8.30
2019-03-20T23:32:05.054Z,8.31
2019-03-20T23:34:33.277Z,8.31
2019-03-20T23:37:01.486Z,8.33
2019-03-20T23:39:29.710Z,8.33
2019-03-20T23:41:57.910Z,8.34
2019-03-20T23:44:26.125Z,8.35
2019-03-20T23:46:54.333Z,8.37
2019-03-20T23:49:24.992Z,8.39
2019-03-20T23:51:54.034Z,8.35
2019-03-20T23:54:26.251Z,8.35
2019-03-20T23:56:54.444Z,8.43
2019-03-20T23:59:22.660Z,8.42
